Time;durP1;ratioP1;P1;durP2;ratioP2;P2;SDS_P1;SDS_P2;PMS_P1;PMS_P2;Temp;Humidity;BMP_temperature;BMP_pressure;BME280_temperature;BME280_humidity;BME280_pressure;Samples;Min_cycle;Max_cycle;Signal;HPM_P1;HPM_P2
2023/04/09 00:01:09;;;;;;;91.18;45.35;;;;;;;;;;5054837;28;20091;-79
2023/04/09 00:03:35;;;;;;;81.43;43.67;;;;;;;;;;5052804;28;20498;-77
2023/04/09 00:06:02;;;;;;;83.90;44.05;;;;;;;;;;5053875;28;20044;-78
2023/04/09 00:08:28;;;;;;;81.20;41.60;;;;;;;;;;5051823;28;20048;-80
2023/04/09 00:10:54;;;;;;;84.20;41.35;;;;;;;;;;5058024;28;20059;-81
2023/04/09 00:13:20;;;;;;;76.68;42.13;;;;;;;;;;5036347;28;20067;-80
2023/04/09 00:15:46;;;;;;;77.03;39.78;;;;;;;;;;5036777;28;20076;-78
2023/04/09 00:18:13;;;;;;;77.45;40.83;;;;;;;;;;5050365;28;20041;-81
2023/04/09 00:20:39;;;;;;;72.15;37.08;;;;;;;;;;5058211;28;20040;-81
2023/04/09 00:23:05;;;;;;;55.80;31.20;;;;;;;;;;5080469;28;20094;-81
2023/04/09 00:25:31;;;;;;;61.35;32.53;;;;;;;;;;5059568;28;20506;-81
2023/04/09 00:27:58;;;;;;;54.03;27.80;;;;;;;;;;5057848;28;20534;-79
2023/04/09 00:30:24;;;;;;;55.28;27.15;;;;;;;;;;5059694;28;20051;-80
2023/04/09 00:32:50;;;;;;;46.03;25.08;;;;;;;;;;5058865;28;20476;-79
2023/04/09 00:35:16;;;;;;;45.58;25.13;;;;;;;;;;5060735;28;20055;-80
2023/04/09 00:37:42;;;;;;;44.22;24.67;;;;;;;;;;5057691;28;20044;-79
2023/04/09 00:40:08;;;;;;;45.92;25.63;;;;;;;;;;5056247;28;20612;-80
2023/04/09 00:42:36;;;;;;;46.97;26.60;;;;;;;;;;5051725;28;20129;-78
2023/04/09 00:45:02;;;;;;;53.58;27.23;;;;;;;;;;5057335;28;20048;-80
2023/04/09 00:47:29;;;;;;;51.53;29.00;;;;;;;;;;5055874;28;20133;-79
2023/04/09 00:49:56;;;;;;;53.90;29.77;;;;;;;;;;5050223;28;20036;-76
2023/04/09 00:52:22;;;;;;;53.35;29.45;;;;;;;;;;5054588;28;20056;-78
2023/04/09 00:54:49;;;;;;;58.72;30.30;;;;;;;;;;5051384;28;20423;-79
2023/04/09 00:57:27;;;;;;;52.60;29.42;;;;;;;;;;5054263;28;20048;-78
2023/04/09 00:59:53;;;;;;;48.90;27.42;;;;;;;;;;5054674;28;20299;-77
2023/04/09 01:02:19;;;;;;;53.70;29.52;;;;;;;;;;5053251;28;20516;-78
2023/04/09 01:04:45;;;;;;;59.30;32.42;;;;;;;;;;5049529;28;20040;-79
2023/04/09 01:07:30;;;;;;;57.83;29.10;;;;;;;;;;5054269;28;20044;-79
2023/04/09 01:10:02;;;;;;;55.67;30.55;;;;;;;;;;5053128;28;20435;-80
2023/04/09 01:12:49;;;;;;;56.55;29.65;;;;;;;;;;5051738;28;20496;-77
2023/04/09 01:15:18;;;;;;;53.92;30.10;;;;;;;;;;5024801;28;20293;-79
2023/04/09 01:17:48;;;;;;;54.33;30.90;;;;;;;;;;5052389;28;20056;-79
2023/04/09 01:20:18;;;;;;;53.67;29.88;;;;;;;;;;5053820;28;20504;-77
2023/04/09 01:23:06;;;;;;;56.05;31.13;;;;;;;;;;5049845;28;20037;-79
2023/04/09 01:25:32;;;;;;;55.15;30.08;;;;;;;;;;5057996;28;20040;-80
2023/04/09 01:28:17;;;;;;;57.78;30.52;;;;;;;;;;5056035;28;20107;-78
2023/04/09 01:30:48;;;;;;;52.53;30.02;;;;;;;;;;5057487;28;20045;-79
2023/04/09 01:33:15;;;;;;;55.13;31.33;;;;;;;;;;5050350;28;20123;-78
2023/04/09 01:35:52;;;;;;;55.08;29.27;;;;;;;;;;5045342;28;20047;-78
2023/04/09 01:38:19;;;;;;;58.80;31.90;;;;;;;;;;5064667;28;20504;-80
2023/04/09 01:40:45;;;;;;;59.50;29.95;;;;;;;;;;5051838;28;20048;-79
2023/04/09 01:43:11;;;;;;;60.80;31.58;;;;;;;;;;5049236;28;20049;-78
2023/04/09 01:45:38;;;;;;;62.20;32.65;;;;;;;;;;5049167;28;20076;-78
2023/04/09 01:48:04;;;;;;;59.17;31.38;;;;;;;;;;5048456;28;20080;-79
2023/04/09 01:50:31;;;;;;;58.42;31.65;;;;;;;;;;5037829;28;20519;-79
2023/04/09 01:52:57;;;;;;;59.58;30.75;;;;;;;;;;5041729;28;20143;-77
2023/04/09 01:55:25;;;;;;;62.40;31.80;;;;;;;;;;5057933;28;20626;-79
2023/04/09 01:57:51;;;;;;;62.63;32.08;;;;;;;;;;5055787;28;20752;-79
2023/04/09 02:00:18;;;;;;;59.88;31.98;;;;;;;;;;5057693;28;21024;-80
2023/04/09 02:03:14;;;;;;;65.32;32.08;;;;;;;;;;5054791;28;20063;-76
2023/04/09 02:05:50;;;;;;;58.10;31.35;;;;;;;;;;5041494;28;20036;-78
2023/04/09 02:08:18;;;;;;;66.53;33.78;;;;;;;;;;5055290;28;20052;-78
2023/04/09 02:10:54;;;;;;;69.03;34.28;;;;;;;;;;5059683;28;20052;-79
2023/04/09 02:13:20;;;;;;;65.03;33.65;;;;;;;;;;5057587;28;20464;-79
2023/04/09 02:15:47;;;;;;;64.40;33.58;;;;;;;;;;5058534;28;20082;-79
2023/04/09 02:18:23;;;;;;;69.53;34.10;;;;;;;;;;5054804;28;20052;-78
2023/04/09 02:20:49;;;;;;;57.30;31.55;;;;;;;;;;5053773;28;20040;-79
2023/04/09 02:23:15;;;;;;;59.88;33.17;;;;;;;;;;5041431;28;20052;-80
2023/04/09 02:25:42;;;;;;;66.32;34.97;;;;;;;;;;5038552;28;20060;-78
2023/04/09 02:28:08;;;;;;;63.78;33.15;;;;;;;;;;5041916;28;20041;-78
2023/04/09 02:30:34;;;;;;;67.22;34.05;;;;;;;;;;5054542;28;20052;-80
2023/04/09 02:33:00;;;;;;;63.22;32.63;;;;;;;;;;5058383;28;20075;-79
2023/04/09 02:35:26;;;;;;;68.03;33.35;;;;;;;;;;5054609;28;20067;-78
2023/04/09 02:37:52;;;;;;;65.63;32.97;;;;;;;;;;5056130;28;20092;-78
2023/04/09 02:40:18;;;;;;;69.80;32.83;;;;;;;;;;5038781;28;20045;-80
2023/04/09 02:42:44;;;;;;;66.68;33.08;;;;;;;;;;5072330;28;20052;-78
2023/04/09 02:45:10;;;;;;;69.07;34.47;;;;;;;;;;5056570;28;20052;-79
2023/04/09 02:47:36;;;;;;;65.28;34.70;;;;;;;;;;5046099;28;20221;-78
2023/04/09 02:50:02;;;;;;;69.35;34.72;;;;;;;;;;5051481;28;20177;-78
2023/04/09 02:52:28;;;;;;;68.10;34.08;;;;;;;;;;5040406;28;20041;-79
2023/04/09 02:54:54;;;;;;;74.18;35.67;;;;;;;;;;5056229;28;20044;-80
2023/04/09 02:57:20;;;;;;;69.85;35.33;;;;;;;;;;5055797;28;20108;-80
2023/04/09 02:59:46;;;;;;;66.97;32.97;;;;;;;;;;5051643;28;20599;-77
2023/04/09 03:02:12;;;;;;;72.20;35.40;;;;;;;;;;5056299;28;20131;-78
2023/04/09 03:04:38;;;;;;;63.10;32.40;;;;;;;;;;5062731;28;20128;-78
2023/04/09 03:07:04;;;;;;;74.75;36.78;;;;;;;;;;5055061;28;20047;-77
2023/04/09 03:09:30;;;;;;;69.95;34.75;;;;;;;;;;5056901;28;20151;-78
2023/04/09 03:11:56;;;;;;;73.25;36.28;;;;;;;;;;5056634;28;20033;-78
2023/04/09 03:14:23;;;;;;;70.75;35.38;;;;;;;;;;5052160;28;20087;-77
2023/04/09 03:16:49;;;;;;;70.72;34.50;;;;;;;;;;5056188;28;20043;-78
2023/04/09 03:19:15;;;;;;;69.68;35.47;;;;;;;;;;5053486;28;20044;-78
2023/04/09 03:21:41;;;;;;;73.35;36.75;;;;;;;;;;5036281;28;20270;-79
2023/04/09 03:24:07;;;;;;;67.90;34.05;;;;;;;;;;5057409;28;20492;-78
2023/04/09 03:26:36;;;;;;;73.93;35.38;;;;;;;;;;5052541;28;20514;-80
2023/04/09 03:29:06;;;;;;;68.75;33.53;;;;;;;;;;5059165;28;20056;-78
2023/04/09 03:31:32;;;;;;;72.30;35.08;;;;;;;;;;5060517;28;20051;-80
2023/04/09 03:33:58;;;;;;;71.40;36.10;;;;;;;;;;5061588;28;20051;-79
2023/04/09 03:36:26;;;;;;;71.95;35.47;;;;;;;;;;5059960;28;20040;-79
2023/04/09 03:38:52;;;;;;;71.78;36.40;;;;;;;;;;5060736;28;20056;-79
2023/04/09 03:41:18;;;;;;;72.65;36.83;;;;;;;;;;5060585;28;20048;-79
2023/04/09 03:43:44;;;;;;;71.07;35.08;;;;;;;;;;5043620;28;20435;-78
2023/04/09 03:46:14;;;;;;;72.00;35.10;;;;;;;;;;5059721;28;20423;-77
2023/04/09 03:48:40;;;;;;;69.18;35.60;;;;;;;;;;5048023;28;20871;-78
2023/04/09 03:51:07;;;;;;;68.15;34.92;;;;;;;;;;5059450;28;20075;-79
2023/04/09 03:53:33;;;;;;;69.32;34.38;;;;;;;;;;5053591;28;20043;-79
2023/04/09 03:56:00;;;;;;;67.65;35.22;;;;;;;;;;5054502;28;20040;-77
2023/04/09 03:58:26;;;;;;;69.30;34.50;;;;;;;;;;5053002;28;20056;-77
2023/04/09 04:00:52;;;;;;;69.72;35.25;;;;;;;;;;5052709;28;20051;-79
2023/04/09 04:03:18;;;;;;;69.72;34.53;;;;;;;;;;5055631;28;20075;-78
2023/04/09 04:05:44;;;;;;;69.28;34.20;;;;;;;;;;5054673;28;20086;-77
2023/04/09 04:08:10;;;;;;;75.78;35.85;;;;;;;;;;5053357;28;20060;-79
2023/04/09 04:10:36;;;;;;;69.70;34.63;;;;;;;;;;5051978;28;20040;-78
2023/04/09 04:13:02;;;;;;;82.63;36.67;;;;;;;;;;5055692;28;20507;-80
2023/04/09 04:15:28;;;;;;;74.50;36.38;;;;;;;;;;5052677;28;20060;-78
2023/04/09 04:17:54;;;;;;;73.75;35.95;;;;;;;;;;5056111;28;20052;-80
2023/04/09 04:20:20;;;;;;;75.32;35.88;;;;;;;;;;5051518;28;20074;-77
2023/04/09 04:22:46;;;;;;;68.28;37.10;;;;;;;;;;5052854;28;20559;-79
2023/04/09 04:25:12;;;;;;;79.20;35.95;;;;;;;;;;5053372;28;20040;-78
2023/04/09 04:27:41;;;;;;;71.93;36.08;;;;;;;;;;5053505;28;20503;-79
2023/04/09 04:30:08;;;;;;;75.05;36.65;;;;;;;;;;5054544;28;20648;-78
2023/04/09 04:32:34;;;;;;;73.45;37.13;;;;;;;;;;5053178;28;20408;-79
2023/04/09 04:35:00;;;;;;;77.80;36.97;;;;;;;;;;5055524;28;20124;-78
2023/04/09 04:37:26;;;;;;;80.65;36.70;;;;;;;;;;5036171;28;20058;-79
2023/04/09 04:39:52;;;;;;;72.65;36.70;;;;;;;;;;5051532;28;20044;-78
2023/04/09 04:42:18;;;;;;;71.57;35.13;;;;;;;;;;5053312;28;20047;-79
2023/04/09 04:44:44;;;;;;;75.75;36.15;;;;;;;;;;5051337;28;20047;-78
2023/04/09 04:47:10;;;;;;;79.57;36.20;;;;;;;;;;5051538;28;20450;-78
2023/04/09 04:49:36;;;;;;;74.72;35.38;;;;;;;;;;5051287;28;20032;-78
2023/04/09 04:52:02;;;;;;;74.20;36.95;;;;;;;;;;5052856;28;20102;-79
2023/04/09 04:54:28;;;;;;;72.55;36.25;;;;;;;;;;5048453;28;20056;-77
2023/04/09 04:56:55;;;;;;;77.60;37.38;;;;;;;;;;5051419;28;20892;-76
2023/04/09 04:59:21;;;;;;;73.63;38.22;;;;;;;;;;5052344;28;20093;-77
2023/04/09 05:01:47;;;;;;;74.13;36.88;;;;;;;;;;5054804;28;20036;-76
2023/04/09 05:04:13;;;;;;;71.00;36.40;;;;;;;;;;5051197;28;20048;-78
2023/04/09 05:06:38;;;;;;;71.68;36.42;;;;;;;;;;5051324;28;20121;-76
2023/04/09 05:09:05;;;;;;;74.10;36.08;;;;;;;;;;5051300;28;20040;-77
2023/04/09 05:11:31;;;;;;;70.68;36.72;;;;;;;;;;5052542;28;20036;-78
2023/04/09 05:13:57;;;;;;;81.25;38.22;;;;;;;;;;5055417;28;20122;-79
2023/04/09 05:16:23;;;;;;;75.95;37.50;;;;;;;;;;5052698;28;20518;-78
2023/04/09 05:18:49;;;;;;;74.63;36.92;;;;;;;;;;5070702;28;20163;-77
2023/04/09 05:21:15;;;;;;;68.30;35.45;;;;;;;;;;5050703;28;20079;-79
2023/04/09 05:23:41;;;;;;;72.85;36.90;;;;;;;;;;5051816;28;20072;-78
2023/04/09 05:26:07;;;;;;;72.53;38.72;;;;;;;;;;5042688;28;20052;-78
2023/04/09 05:28:33;;;;;;;65.13;35.95;;;;;;;;;;5049062;28;20063;-78
2023/04/09 05:30:59;;;;;;;70.88;36.08;;;;;;;;;;5052158;28;20041;-77
2023/04/09 05:33:25;;;;;;;75.57;37.08;;;;;;;;;;5057680;28;20044;-76
2023/04/09 05:35:51;;;;;;;66.78;35.42;;;;;;;;;;5055000;28;20105;-77
2023/04/09 05:38:17;;;;;;;63.42;33.70;;;;;;;;;;5051871;28;20045;-77
2023/04/09 05:40:44;;;;;;;59.88;33.72;;;;;;;;;;5051057;28;20523;-78
2023/04/09 05:43:10;;;;;;;50.70;27.42;;;;;;;;;;5057003;28;20044;-77
2023/04/09 05:45:36;;;;;;;55.08;30.15;;;;;;;;;;5055079;28;20049;-77
2023/04/09 05:48:02;;;;;;;50.40;28.52;;;;;;;;;;5057487;28;20048;-76
2023/04/09 05:50:28;;;;;;;51.35;27.95;;;;;;;;;;5029633;28;20139;-76
2023/04/09 05:52:54;;;;;;;54.25;29.88;;;;;;;;;;5052949;28;20160;-79
2023/04/09 05:55:20;;;;;;;52.45;29.40;;;;;;;;;;5066688;28;20045;-76
2023/04/09 05:57:47;;;;;;;50.67;29.42;;;;;;;;;;5067877;28;20059;-78
2023/04/09 06:00:13;;;;;;;50.75;30.55;;;;;;;;;;5046539;28;20105;-78
2023/04/09 06:02:40;;;;;;;49.55;28.73;;;;;;;;;;5045257;28;20098;-77
2023/04/09 06:05:06;;;;;;;53.53;29.58;;;;;;;;;;5049557;28;20098;-76
2023/04/09 06:07:32;;;;;;;50.25;29.23;;;;;;;;;;5046271;28;20048;-78
2023/04/09 06:09:58;;;;;;;54.03;29.45;;;;;;;;;;5049049;28;20430;-77
2023/04/09 06:12:24;;;;;;;52.10;30.83;;;;;;;;;;5049819;28;20044;-79
2023/04/09 06:14:50;;;;;;;52.90;30.67;;;;;;;;;;5047921;28;20126;-77
2023/04/09 06:17:16;;;;;;;71.78;38.88;;;;;;;;;;5052589;28;20059;-80
2023/04/09 06:19:42;;;;;;;75.30;41.75;;;;;;;;;;5036905;28;20041;-77
2023/04/09 06:22:11;;;;;;;74.97;41.85;;;;;;;;;;5045135;28;20048;-77
2023/04/09 06:24:37;;;;;;;75.50;41.88;;;;;;;;;;5050568;28;20037;-77
2023/04/09 06:27:03;;;;;;;75.45;43.13;;;;;;;;;;5047601;28;20040;-78
2023/04/09 06:29:29;;;;;;;75.60;41.40;;;;;;;;;;5050208;28;20160;-79
2023/04/09 06:31:55;;;;;;;74.57;41.17;;;;;;;;;;5043615;28;20040;-77
2023/04/09 06:34:21;;;;;;;71.18;38.47;;;;;;;;;;5050858;28;20047;-80
2023/04/09 06:36:47;;;;;;;64.07;36.40;;;;;;;;;;5050608;28;20336;-79
2023/04/09 06:39:13;;;;;;;66.32;38.17;;;;;;;;;;5050870;28;21282;-80
2023/04/09 06:41:39;;;;;;;70.43;37.00;;;;;;;;;;5052829;28;20054;-79
2023/04/09 06:44:05;;;;;;;69.50;36.47;;;;;;;;;;5050891;28;20834;-78
2023/04/09 06:46:31;;;;;;;69.50;35.75;;;;;;;;;;5047189;28;20048;-79
2023/04/09 06:48:57;;;;;;;63.97;33.22;;;;;;;;;;5043021;28;20181;-77
2023/04/09 06:51:23;;;;;;;61.40;33.88;;;;;;;;;;5049839;28;20128;-77
2023/04/09 06:53:49;;;;;;;62.50;33.17;;;;;;;;;;5043485;28;20722;-78
2023/04/09 06:56:15;;;;;;;63.88;34.30;;;;;;;;;;5048643;28;20919;-77
2023/04/09 06:58:41;;;;;;;65.22;35.45;;;;;;;;;;5052498;28;20044;-78
2023/04/09 07:01:07;;;;;;;67.07;35.05;;;;;;;;;;5026671;28;20103;-77
2023/04/09 07:03:33;;;;;;;66.90;35.30;;;;;;;;;;5049292;28;20063;-77
2023/04/09 07:05:59;;;;;;;62.05;34.13;;;;;;;;;;5060583;28;21048;-77
2023/04/09 07:08:25;;;;;;;65.20;34.30;;;;;;;;;;5033807;28;20169;-77
2023/04/09 07:10:51;;;;;;;63.60;35.35;;;;;;;;;;5046889;28;20041;-78
2023/04/09 07:13:17;;;;;;;68.13;36.47;;;;;;;;;;5048783;28;20044;-78
2023/04/09 07:15:43;;;;;;;67.18;33.97;;;;;;;;;;5052594;28;20080;-82
2023/04/09 07:18:09;;;;;;;61.83;33.58;;;;;;;;;;5029262;28;20523;-79
2023/04/09 07:20:35;;;;;;;61.95;33.47;;;;;;;;;;5051246;28;20131;-77
2023/04/09 07:23:01;;;;;;;57.35;32.15;;;;;;;;;;5052748;28;20221;-79
2023/04/09 07:25:27;;;;;;;56.33;30.60;;;;;;;;;;5037847;28;20041;-78
2023/04/09 07:27:53;;;;;;;61.20;33.58;;;;;;;;;;5055235;28;20054;-79
2023/04/09 07:30:19;;;;;;;58.72;32.17;;;;;;;;;;5055832;28;20062;-77
2023/04/09 07:32:46;;;;;;;55.83;32.38;;;;;;;;;;5050441;28;20489;-79
2023/04/09 07:35:12;;;;;;;59.63;34.03;;;;;;;;;;5049753;28;20059;-78
2023/04/09 07:37:38;;;;;;;62.45;33.78;;;;;;;;;;5058522;28;20048;-78
2023/04/09 07:40:04;;;;;;;57.25;32.42;;;;;;;;;;5053111;28;20533;-78
2023/04/09 07:42:31;;;;;;;59.47;32.35;;;;;;;;;;5035531;28;20704;-78
2023/04/09 07:44:59;;;;;;;57.92;32.30;;;;;;;;;;5045782;28;20454;-76
2023/04/09 07:47:25;;;;;;;62.85;34.38;;;;;;;;;;5032695;28;20044;-78
2023/04/09 07:49:51;;;;;;;61.53;34.78;;;;;;;;;;5038659;28;20048;-76
2023/04/09 07:52:18;;;;;;;60.60;35.25;;;;;;;;;;5043474;28;20080;-77
2023/04/09 07:54:45;;;;;;;62.38;34.78;;;;;;;;;;5044371;28;20758;-77
2023/04/09 07:57:14;;;;;;;59.35;33.67;;;;;;;;;;5030862;28;20045;-76
2023/04/09 07:59:40;;;;;;;59.47;32.60;;;;;;;;;;5046773;28;20048;-77
2023/04/09 08:02:06;;;;;;;59.55;33.63;;;;;;;;;;5042065;28;20064;-76
2023/04/09 08:04:33;;;;;;;63.63;35.20;;;;;;;;;;5047365;28;20048;-77
2023/04/09 08:06:59;;;;;;;59.67;33.63;;;;;;;;;;5044752;28;20213;-76
2023/04/09 08:09:25;;;;;;;53.72;32.92;;;;;;;;;;5047737;28;20136;-77
2023/04/09 08:11:52;;;;;;;55.85;32.80;;;;;;;;;;5048048;28;20158;-78
2023/04/09 08:14:18;;;;;;;57.03;32.28;;;;;;;;;;5030498;28;20090;-76
2023/04/09 08:16:46;;;;;;;55.20;32.53;;;;;;;;;;5046825;28;20373;-76
2023/04/09 08:19:13;;;;;;;55.97;31.48;;;;;;;;;;5044350;28;20114;-76
2023/04/09 08:21:43;;;;;;;56.45;32.70;;;;;;;;;;5043821;28;20131;-76
2023/04/09 08:24:12;;;;;;;53.58;30.45;;;;;;;;;;5041760;28;20139;-77
2023/04/09 08:26:38;;;;;;;56.58;32.67;;;;;;;;;;5047588;28;20048;-76
2023/04/09 08:29:04;;;;;;;54.30;32.33;;;;;;;;;;5031569;28;20093;-77
2023/04/09 08:31:31;;;;;;;55.25;31.90;;;;;;;;;;5029936;28;20056;-78
2023/04/09 08:33:57;;;;;;;57.72;31.92;;;;;;;;;;5027652;28;20540;-78
2023/04/09 08:36:23;;;;;;;57.80;31.98;;;;;;;;;;5046398;28;20040;-77
2023/04/09 08:38:49;;;;;;;53.25;31.70;;;;;;;;;;5044561;28;20110;-78
2023/04/09 08:41:17;;;;;;;53.70;30.33;;;;;;;;;;5042507;28;20070;-78
2023/04/09 08:43:50;;;;;;;56.10;33.22;;;;;;;;;;5051417;28;20048;-78
2023/04/09 08:46:17;;;;;;;55.50;31.33;;;;;;;;;;5045298;28;20102;-79
2023/04/09 08:48:44;;;;;;;53.13;32.22;;;;;;;;;;5032199;28;20097;-77
2023/04/09 08:51:17;;;;;;;56.03;31.70;;;;;;;;;;5026924;28;20167;-77
2023/04/09 08:53:49;;;;;;;49.63;30.30;;;;;;;;;;5029467;28;20051;-78
2023/04/09 08:56:20;;;;;;;54.03;32.40;;;;;;;;;;5032484;28;20059;-79
2023/04/09 08:58:47;;;;;;;52.75;31.73;;;;;;;;;;5045658;28;20059;-78
2023/04/09 09:01:22;;;;;;;49.22;30.77;;;;;;;;;;5044275;28;20040;-77
2023/04/09 09:04:04;;;;;;;49.47;30.45;;;;;;;;;;5044450;28;20132;-76
2023/04/09 09:06:32;;;;;;;55.05;31.52;;;;;;;;;;5047570;28;20093;-79
2023/04/09 09:09:00;;;;;;;52.72;32.65;;;;;;;;;;5043234;28;20064;-76
2023/04/09 09:11:30;;;;;;;52.67;31.02;;;;;;;;;;5030671;28;20102;-79
2023/04/09 09:13:57;;;;;;;51.80;31.23;;;;;;;;;;5027935;28;20540;-81
2023/04/09 09:16:24;;;;;;;48.40;31.05;;;;;;;;;;5046976;28;20068;-78
2023/04/09 09:18:51;;;;;;;48.50;30.75;;;;;;;;;;5022737;28;20051;-78
2023/04/09 09:21:18;;;;;;;50.90;30.73;;;;;;;;;;5045960;28;20102;-80
2023/04/09 09:23:44;;;;;;;52.55;31.35;;;;;;;;;;5043002;28;20048;-78
2023/04/09 09:26:17;;;;;;;56.45;32.13;;;;;;;;;;5033905;28;20082;-80
2023/04/09 09:28:47;;;;;;;49.70;31.77;;;;;;;;;;5046353;28;20074;-78
2023/04/09 09:31:14;;;;;;;47.70;29.80;;;;;;;;;;5045262;28;20136;-78
2023/04/09 09:33:40;;;;;;;46.05;27.23;;;;;;;;;;5044149;28;20051;-77
2023/04/09 09:36:09;;;;;;;51.00;29.45;;;;;;;;;;5043658;28;20049;-79
2023/04/09 09:38:53;;;;;;;46.13;29.52;;;;;;;;;;5047181;28;20055;-79
2023/04/09 09:41:19;;;;;;;48.08;28.70;;;;;;;;;;5043717;28;20037;-79
2023/04/09 09:43:45;;;;;;;50.83;29.67;;;;;;;;;;5045338;28;20135;-80
2023/04/09 09:46:11;;;;;;;53.10;32.33;;;;;;;;;;5046821;28;20059;-79
2023/04/09 09:48:38;;;;;;;53.03;32.30;;;;;;;;;;5049007;28;20442;-81
2023/04/09 09:51:26;;;;;;;47.58;30.05;;;;;;;;;;5053073;28;20033;-78
2023/04/09 09:53:55;;;;;;;46.97;29.52;;;;;;;;;;5056223;28;20876;-78
2023/04/09 09:56:23;;;;;;;49.97;31.20;;;;;;;;;;5050569;28;20049;-80
2023/04/09 09:58:56;;;;;;;49.45;30.83;;;;;;;;;;5050318;28;20217;-79
2023/04/09 10:01:23;;;;;;;47.42;28.33;;;;;;;;;;5033468;28;20049;-79
2023/04/09 10:03:51;;;;;;;45.30;29.07;;;;;;;;;;5035702;28;20048;-79
2023/04/09 10:06:17;;;;;;;51.70;31.15;;;;;;;;;;5041858;28;20055;-77
2023/04/09 10:08:45;;;;;;;45.80;28.52;;;;;;;;;;5047792;28;20052;-79
2023/04/09 10:11:11;;;;;;;45.08;29.88;;;;;;;;;;5028157;28;20052;-79
2023/04/09 10:13:39;;;;;;;51.92;31.23;;;;;;;;;;5047278;28;20165;-80
2023/04/09 10:16:06;;;;;;;48.42;29.98;;;;;;;;;;5044864;28;20056;-79
2023/04/09 10:18:33;;;;;;;45.92;29.40;;;;;;;;;;5045496;28;20129;-77
2023/04/09 10:21:12;;;;;;;50.00;29.83;;;;;;;;;;5048530;28;20509;-78
2023/04/09 10:23:38;;;;;;;;;;;;;;;;;;5047426;28;20040;-77
2023/04/09 10:26:04;;;;;;;44.38;26.92;;;;;;;;;;5050162;28;19970;-81
2023/04/09 10:28:30;;;;;;;41.78;25.92;;;;;;;;;;5048606;28;21454;-83
2023/04/09 10:30:58;;;;;;;42.22;26.92;;;;;;;;;;5044711;28;20090;-78
2023/04/09 10:33:25;;;;;;;39.15;26.55;;;;;;;;;;5047929;28;20064;-78
2023/04/09 10:35:53;;;;;;;41.73;27.77;;;;;;;;;;5047516;28;20131;-79
2023/04/09 10:38:36;;;;;;;44.13;27.90;;;;;;;;;;5047900;28;20063;-77
2023/04/09 10:41:15;;;;;;;43.10;27.92;;;;;;;;;;5052616;28;20048;-77
2023/04/09 10:43:41;;;;;;;43.15;27.23;;;;;;;;;;5050302;28;20045;-79
2023/04/09 10:46:25;;;;;;;40.75;26.45;;;;;;;;;;5047488;28;20048;-78
2023/04/09 10:49:07;;;;;;;40.42;26.08;;;;;;;;;;5045357;28;20066;-78
2023/04/09 10:51:37;;;;;;;40.97;26.38;;;;;;;;;;5027210;28;20056;-78
2023/04/09 10:54:24;;;;;;;39.97;25.98;;;;;;;;;;5030787;28;20511;-79
2023/04/09 10:57:08;;;;;;;41.35;26.48;;;;;;;;;;5035573;28;20049;-78
2023/04/09 10:59:35;;;;;;;39.97;26.95;;;;;;;;;;5048550;28;21658;-78
2023/04/09 11:02:01;;;;;;;40.40;26.60;;;;;;;;;;5049102;28;20974;-79
2023/04/09 11:04:34;;;;;;;44.05;27.33;;;;;;;;;;5034467;28;20156;-78
2023/04/09 11:07:01;;;;;;;44.47;26.95;;;;;;;;;;5052232;28;20140;-77
2023/04/09 11:09:27;;;;;;;42.58;26.63;;;;;;;;;;5047512;28;20166;-76
2023/04/09 11:11:53;;;;;;;38.28;24.63;;;;;;;;;;5049375;28;20082;-77
2023/04/09 11:14:20;;;;;;;37.83;25.83;;;;;;;;;;5048917;28;20565;-78
2023/04/09 11:16:50;;;;;;;38.38;24.75;;;;;;;;;;5048167;28;20055;-78
2023/04/09 11:19:16;;;;;;;37.40;25.45;;;;;;;;;;5047916;28;20459;-78
2023/04/09 11:21:45;;;;;;;39.70;25.45;;;;;;;;;;5046063;28;20076;-78
2023/04/09 11:24:14;;;;;;;39.90;25.45;;;;;;;;;;5050176;28;20093;-78
2023/04/09 11:26:40;;;;;;;38.20;23.67;;;;;;;;;;5055195;28;20056;-79
2023/04/09 11:29:08;;;;;;;37.60;24.42;;;;;;;;;;5049200;28;20156;-79
2023/04/09 11:31:34;;;;;;;38.58;24.67;;;;;;;;;;5047663;28;20044;-77
2023/04/09 11:34:00;;;;;;;39.08;25.38;;;;;;;;;;5047119;28;20052;-76
2023/04/09 11:36:29;;;;;;;37.75;25.15;;;;;;;;;;5048863;28;20048;-78
2023/04/09 11:38:56;;;;;;;37.08;24.98;;;;;;;;;;5044226;28;20044;-78
2023/04/09 11:41:35;;;;;;;40.10;25.27;;;;;;;;;;5045338;28;20397;-77
2023/04/09 11:44:05;;;;;;;38.80;25.38;;;;;;;;;;5049353;28;20213;-77
2023/04/09 11:46:37;;;;;;;39.03;25.02;;;;;;;;;;5048798;28;20041;-77
2023/04/09 11:49:04;;;;;;;33.88;22.58;;;;;;;;;;5046353;28;20093;-76
2023/04/09 11:51:31;;;;;;;36.33;24.40;;;;;;;;;;5045332;28;22097;-77
2023/04/09 11:54:05;;;;;;;36.90;23.63;;;;;;;;;;5048825;28;20051;-76
2023/04/09 11:56:31;;;;;;;38.85;24.23;;;;;;;;;;5050700;28;21073;-77
2023/04/09 11:58:58;;;;;;;39.58;25.67;;;;;;;;;;5029480;28;20163;-78
2023/04/09 12:01:31;;;;;;;39.00;24.67;;;;;;;;;;5047333;28;20055;-79
2023/04/09 12:03:57;;;;;;;36.30;23.60;;;;;;;;;;5045158;28;20048;-77
2023/04/09 12:06:24;;;;;;;33.95;23.05;;;;;;;;;;5042439;28;20148;-78
2023/04/09 12:08:53;;;;;;;36.10;24.67;;;;;;;;;;5032118;28;20036;-77
2023/04/09 12:11:20;;;;;;;36.72;25.50;;;;;;;;;;5039071;28;20133;-77
2023/04/09 12:13:46;;;;;;;37.83;25.15;;;;;;;;;;5048390;28;20875;-77
2023/04/09 12:16:12;;;;;;;37.03;25.15;;;;;;;;;;5039543;28;20571;-78
2023/04/09 12:18:39;;;;;;;37.58;25.73;;;;;;;;;;5044688;28;20076;-77
2023/04/09 12:21:05;;;;;;;37.88;25.77;;;;;;;;;;5029884;28;20049;-78
2023/04/09 12:23:32;;;;;;;36.55;24.08;;;;;;;;;;5047015;28;20102;-78
2023/04/09 12:26:01;;;;;;;36.75;24.20;;;;;;;;;;5045742;28;20058;-75
2023/04/09 12:28:27;;;;;;;36.83;23.75;;;;;;;;;;5049840;28;20044;-78
2023/04/09 12:30:54;;;;;;;34.42;23.92;;;;;;;;;;5045005;28;20129;-78
2023/04/09 12:33:20;;;;;;;35.88;23.98;;;;;;;;;;5041053;28;20831;-79
2023/04/09 12:35:52;;;;;;;35.03;22.67;;;;;;;;;;5030125;28;20488;-78
2023/04/09 12:38:18;;;;;;;34.13;21.63;;;;;;;;;;5042530;28;20048;-79
2023/04/09 12:40:44;;;;;;;30.52;19.63;;;;;;;;;;5049495;28;20044;-78
2023/04/09 12:43:10;;;;;;;29.73;19.80;;;;;;;;;;5041995;28;20496;-78
2023/04/09 12:45:36;;;;;;;28.63;19.70;;;;;;;;;;5043500;28;20778;-77
2023/04/09 12:48:06;;;;;;;27.83;18.85;;;;;;;;;;5045233;28;20048;-77
2023/04/09 12:50:32;;;;;;;28.65;20.15;;;;;;;;;;5044042;28;20045;-78
2023/04/09 12:53:31;;;;;;;26.58;18.85;;;;;;;;;;5046897;28;20044;-78
2023/04/09 12:55:57;;;;;;;;;;;;;;;;;;5045634;28;20064;-78
2023/04/09 12:58:23;;;;;;;29.25;18.60;;;;;;;;;;5029130;28;20539;-79
2023/04/09 13:00:49;;;;;;;25.85;17.58;;;;;;;;;;5043027;28;20044;-76
2023/04/09 13:03:15;;;;;;;29.38;17.38;;;;;;;;;;5029440;28;20917;-77
2023/04/09 13:05:42;;;;;;;27.65;18.40;;;;;;;;;;5028679;28;20230;-77
2023/04/09 13:08:08;;;;;;;24.25;16.77;;;;;;;;;;5045351;28;20055;-79
2023/04/09 13:10:35;;;;;;;25.45;17.40;;;;;;;;;;5045078;28;20048;-79
2023/04/09 13:13:01;;;;;;;26.58;18.35;;;;;;;;;;5048505;28;20048;-79
2023/04/09 13:15:28;;;;;;;31.90;19.17;;;;;;;;;;5042061;28;21339;-78
2023/04/09 13:17:55;;;;;;;31.48;19.98;;;;;;;;;;5042153;28;20052;-78
2023/04/09 13:20:21;;;;;;;30.45;19.33;;;;;;;;;;5045530;28;20049;-78
2023/04/09 13:22:47;;;;;;;31.40;19.20;;;;;;;;;;5045148;28;20144;-78
2023/04/09 13:25:20;;;;;;;28.45;17.80;;;;;;;;;;5042934;28;20052;-76
2023/04/09 13:27:46;;;;;;;25.00;17.17;;;;;;;;;;5046767;28;20083;-78
2023/04/09 13:30:12;;;;;;;26.30;17.33;;;;;;;;;;5046142;28;20562;-78
2023/04/09 13:32:38;;;;;;;22.98;16.02;;;;;;;;;;5043758;28;20039;-77
2023/04/09 13:35:06;;;;;;;23.23;16.02;;;;;;;;;;5046711;28;20045;-77
2023/04/09 13:37:32;;;;;;;;;;;;;;;;;;5045178;28;20517;-77
2023/04/09 13:39:58;;;;;;;22.80;14.75;;;;;;;;;;5044014;28;19931;-78
2023/04/09 13:42:24;;;;;;;22.35;15.02;;;;;;;;;;5045238;28;20048;-79
2023/04/09 13:44:50;;;;;;;23.77;15.50;;;;;;;;;;5046669;28;20050;-77
2023/04/09 13:47:17;;;;;;;23.23;14.27;;;;;;;;;;5044292;28;20110;-77
2023/04/09 13:49:43;;;;;;;23.15;15.05;;;;;;;;;;5042622;28;20134;-77
2023/04/09 13:52:09;;;;;;;20.48;14.50;;;;;;;;;;5041768;28;20041;-78
2023/04/09 13:54:35;;;;;;;20.60;14.60;;;;;;;;;;5050086;28;20507;-79
2023/04/09 13:57:02;;;;;;;21.67;14.63;;;;;;;;;;5048633;28;20511;-78
2023/04/09 13:59:28;;;;;;;21.77;14.70;;;;;;;;;;5047940;28;20078;-77
2023/04/09 14:01:54;;;;;;;21.52;14.80;;;;;;;;;;5056570;28;20045;-77
2023/04/09 14:04:22;;;;;;;20.90;14.82;;;;;;;;;;5048591;28;20048;-77
2023/04/09 14:06:48;;;;;;;23.83;14.53;;;;;;;;;;5061630;28;20048;-77
2023/04/09 14:09:15;;;;;;;23.08;15.65;;;;;;;;;;5038881;28;20371;-79
2023/04/09 14:11:41;;;;;;;25.10;16.05;;;;;;;;;;5051331;28;20056;-78
2023/04/09 14:14:09;;;;;;;21.38;14.80;;;;;;;;;;5049648;28;20044;-76
2023/04/09 14:16:35;;;;;;;21.65;15.07;;;;;;;;;;5052057;28;20059;-76
2023/04/09 14:19:01;;;;;;;21.25;15.85;;;;;;;;;;5047321;28;20132;-77
2023/04/09 14:21:28;;;;;;;24.23;16.08;;;;;;;;;;5047867;28;20040;-76